createdAt,value
2023-02-19T00:02:25.294Z,9.50
2023-02-19T00:04:54.523Z,9.50
2023-02-19T00:07:25.621Z,9.50
2023-02-19T00:09:52.293Z,9.40
2023-02-19T00:12:18.965Z,9.40
2023-02-19T00:14:45.670Z,9.40
2023-02-19T00:17:12.354Z,9.30
2023-02-19T00:19:39.016Z,9.30
2023-02-19T00:22:07.877Z,9.20
2023-02-19T00:24:34.606Z,9.20
2023-02-19T00:27:03.532Z,9.20
2023-02-19T00:29:30.365Z,9.20
2023-02-19T00:32:02.120Z,9.10
2023-02-19T00:34:31.368Z,9.20
2023-02-19T00:37:00.402Z,9.20
2023-02-19T00:39:27.119Z,9.20
2023-02-19T00:41:53.818Z,9.30
2023-02-19T00:44:20.630Z,9.30
2023-02-19T00:46:50.374Z,9.30
2023-02-19T00:49:21.391Z,9.30
2023-02-19T00:51:52.026Z,9.30
2023-02-19T00:54:19.604Z,9.30
2023-02-19T00:56:46.319Z,9.30
2023-02-19T00:59:13.027Z,9.20
2023-02-19T01:01:40.077Z,9.20
2023-02-19T01:04:09.458Z,9.10
2023-02-19T01:06:37.179Z,9.00
2023-02-19T01:09:05.222Z,9.00
2023-02-19T01:11:31.934Z,9.00
2023-02-19T01:14:00.299Z,9.00
2023-02-19T01:16:30.931Z,9.00
2023-02-19T01:18:58.156Z,9.00
2023-02-19T01:21:29.280Z,9.00
2023-02-19T01:23:57.604Z,9.00
2023-02-19T01:26:28.157Z,9.00
2023-02-19T01:28:57.095Z,9.00
2023-02-19T01:31:25.025Z,8.90
2023-02-19T01:33:56.824Z,9.00
2023-02-19T01:36:23.803Z,9.00
2023-02-19T01:38:50.661Z,9.00
2023-02-19T01:41:21.054Z,8.90
2023-02-19T01:44:15.879Z,8.90
2023-02-19T01:46:43.874Z,8.90
2023-02-19T01:49:48.765Z,8.90
2023-02-19T01:52:32.807Z,8.90
2023-02-19T01:55:01.386Z,8.90
2023-02-19T01:57:33.602Z,8.80
2023-02-19T02:00:06.338Z,8.80
2023-02-19T02:02:33.009Z,8.80
2023-02-19T02:05:03.158Z,8.80
2023-02-19T02:07:48.274Z,8.80
2023-02-19T02:10:21.154Z,8.80
2023-02-19T02:12:57.094Z,8.80
2023-02-19T02:15:35.185Z,8.80
2023-02-19T02:18:49.659Z,8.80
2023-02-19T02:21:43.913Z,8.90
2023-02-19T02:24:24.886Z,9.00
2023-02-19T02:27:28.201Z,8.90
2023-02-19T02:30:12.731Z,9.00
2023-02-19T02:32:53.620Z,8.90
2023-02-19T02:35:24.163Z,8.90
2023-02-19T02:37:55.221Z,8.90
2023-02-19T02:40:24.714Z,8.90
2023-02-19T02:42:51.514Z,8.90
2023-02-19T02:45:36.470Z,8.80
2023-02-19T02:48:12.912Z,8.80
2023-02-19T02:51:00.533Z,8.80
2023-02-19T02:54:16.022Z,8.80
2023-02-19T02:56:45.173Z,8.70
2023-02-19T02:59:16.517Z,8.80
2023-02-19T03:02:18.930Z,8.70
2023-02-19T03:05:32.270Z,8.70
2023-02-19T03:08:07.415Z,8.80
2023-02-19T03:10:58.176Z,8.80
2023-02-19T03:13:52.772Z,8.80
2023-02-19T03:16:50.571Z,8.80
2023-02-19T03:19:20.161Z,8.90
2023-02-19T03:21:57.084Z,8.90
2023-02-19T03:24:50.364Z,8.90
2023-02-19T03:27:20.355Z,9.00
2023-02-19T03:29:51.484Z,9.00
2023-02-19T03:32:31.273Z,9.00
2023-02-19T03:35:17.062Z,9.00
2023-02-19T03:38:01.903Z,9.00
2023-02-19T03:40:31.370Z,9.10
2023-02-19T03:43:38.733Z,9.10
2023-02-19T03:46:23.157Z,9.10
2023-02-19T03:49:01.297Z,9.10
2023-02-19T03:51:39.176Z,9.10
2023-02-19T03:54:14.988Z,9.10
2023-02-19T03:57:08.437Z,9.10
2023-02-19T03:59:47.109Z,9.20
2023-02-19T04:02:29.712Z,9.20
2023-02-19T04:05:07.926Z,9.20
2023-02-19T04:07:40.065Z,9.20
2023-02-19T04:10:09.163Z,9.20
2023-02-19T04:12:41.630Z,9.20
2023-02-19T04:15:14.449Z,9.30
2023-02-19T04:17:48.991Z,9.20
2023-02-19T04:20:16.563Z,9.30
2023-02-19T04:22:43.934Z,9.20
2023-02-19T04:25:12.870Z,9.20
2023-02-19T04:27:42.222Z,9.10
2023-02-19T04:30:11.476Z,9.10
2023-02-19T04:32:38.263Z,9.10
2023-02-19T04:35:07.672Z,9.10
2023-02-19T04:37:34.331Z,9.10
2023-02-19T04:40:01.066Z,9.10
2023-02-19T04:42:27.719Z,9.20
2023-02-19T04:44:54.361Z,9.20
2023-02-19T04:47:23.492Z,9.20
2023-02-19T04:49:50.194Z,9.30
2023-02-19T04:52:17.070Z,9.30
2023-02-19T04:54:43.706Z,9.30
2023-02-19T04:57:10.553Z,9.30
2023-02-19T04:59:39.710Z,9.30
2023-02-19T05:02:11.292Z,9.30
2023-02-19T05:04:40.780Z,9.40
2023-02-19T05:07:09.964Z,9.30
2023-02-19T05:09:36.624Z,9.30
2023-02-19T05:12:03.468Z,9.30
2023-02-19T05:14:30.106Z,9.40
2023-02-19T05:16:56.855Z,9.40
2023-02-19T05:19:23.578Z,9.40
2023-02-19T05:21:50.304Z,9.40
2023-02-19T05:24:17.048Z,9.40
2023-02-19T05:26:45.419Z,9.40
2023-02-19T05:29:12.229Z,9.40
2023-02-19T05:31:38.926Z,9.40
2023-02-19T05:34:08.305Z,9.40
2023-02-19T05:36:34.983Z,9.50
2023-02-19T05:39:06.140Z,9.50
2023-02-19T05:41:35.356Z,9.50
2023-02-19T05:44:04.406Z,9.50
2023-02-19T05:46:31.892Z,9.50
2023-02-19T05:48:59.305Z,9.50
2023-02-19T05:51:27.409Z,9.50
2023-02-19T05:53:57.258Z,9.50
2023-02-19T05:56:34.397Z,9.50
2023-02-19T05:59:29.316Z,9.60
2023-02-19T06:01:56.134Z,9.60
2023-02-19T06:04:23.334Z,9.50
2023-02-19T06:06:50.131Z,9.50
2023-02-19T06:09:19.067Z,9.50
2023-02-19T06:11:45.811Z,9.50
2023-02-19T06:14:15.069Z,9.40
2023-02-19T06:16:44.248Z,9.40
2023-02-19T06:19:13.183Z,9.40
2023-02-19T06:21:44.652Z,9.40
2023-02-19T06:24:13.786Z,9.30
2023-02-19T06:26:40.462Z,9.30
2023-02-19T06:29:09.614Z,9.30
2023-02-19T06:31:36.345Z,9.30
2023-02-19T06:34:06.424Z,9.30
2023-02-19T06:36:35.629Z,9.30
2023-02-19T06:39:04.114Z,9.30
2023-02-19T06:41:31.019Z,9.30
2023-02-19T06:43:58.310Z,9.30
2023-02-19T06:46:25.265Z,9.40
2023-02-19T06:48:52.024Z,9.40
2023-02-19T06:51:22.617Z,9.30
2023-02-19T06:53:49.938Z,9.30
2023-02-19T06:56:33.765Z,9.30
2023-02-19T06:59:05.003Z,9.30
2023-02-19T07:01:33.971Z,9.30
2023-02-19T07:04:01.433Z,9.40
2023-02-19T07:06:29.419Z,9.30
2023-02-19T07:08:57.687Z,9.30
2023-02-19T07:11:25.251Z,9.30
2023-02-19T07:14:00.113Z,9.30
2023-02-19T07:16:27.320Z,9.20
2023-02-19T07:18:56.960Z,9.20
2023-02-19T07:21:26.710Z,9.20
2023-02-19T07:23:53.757Z,9.30
2023-02-19T07:26:21.574Z,9.30
2023-02-19T07:28:49.958Z,9.30
2023-02-19T07:31:19.648Z,9.40
2023-02-19T07:33:47.538Z,9.40
2023-02-19T07:36:15.342Z,9.50
2023-02-19T07:38:42.085Z,9.50
2023-02-19T07:41:09.153Z,9.50
2023-02-19T07:43:40.002Z,9.50
2023-02-19T07:46:14.165Z,9.60
2023-02-19T07:48:42.488Z,9.50
2023-02-19T07:51:13.195Z,9.60
2023-02-19T07:53:40.030Z,9.60
2023-02-19T07:56:10.985Z,9.60
2023-02-19T07:58:37.660Z,9.60
2023-02-19T08:01:13.976Z,9.60
2023-02-19T08:03:44.090Z,9.70
2023-02-19T08:06:11.796Z,9.70
2023-02-19T08:08:39.318Z,9.70
2023-02-19T08:11:25.106Z,9.70
2023-02-19T08:13:53.617Z,9.70
2023-02-19T08:16:33.045Z,9.80
2023-02-19T08:19:07.759Z,9.80
2023-02-19T08:21:36.578Z,9.90
2023-02-19T08:24:03.416Z,9.80
2023-02-19T08:26:32.388Z,9.90
2023-02-19T08:28:59.141Z,9.90
2023-02-19T08:31:28.443Z,9.90
2023-02-19T08:33:57.699Z,9.90
2023-02-19T08:36:24.391Z,9.90
2023-02-19T08:38:51.088Z,9.90
2023-02-19T08:41:17.872Z,10.00
2023-02-19T08:43:44.698Z,10.00
2023-02-19T08:46:14.051Z,10.00
2023-02-19T08:48:43.270Z,10.00
2023-02-19T08:51:12.180Z,10.00
2023-02-19T08:53:40.581Z,10.00
2023-02-19T08:56:09.885Z,10.00
2023-02-19T08:58:42.090Z,10.10
2023-02-19T09:01:15.739Z,10.10
2023-02-19T09:03:43.250Z,10.00
2023-02-19T09:06:18.539Z,10.10
2023-02-19T09:08:45.311Z,10.00
2023-02-19T09:11:12.865Z,10.00
2023-02-19T09:13:42.077Z,10.10
2023-02-19T09:16:08.864Z,10.10
2023-02-19T09:18:38.161Z,10.10
2023-02-19T09:21:06.520Z,10.10
2023-02-19T09:23:34.516Z,10.10
2023-02-19T09:26:03.316Z,10.10
2023-02-19T09:28:32.494Z,10.10
2023-02-19T09:31:11.782Z,10.10
2023-02-19T09:33:41.867Z,10.10
2023-02-19T09:36:08.940Z,10.10
2023-02-19T09:38:39.450Z,10.10
2023-02-19T09:41:30.854Z,10.10
2023-02-19T09:44:05.801Z,10.10
2023-02-19T09:46:43.618Z,10.00
2023-02-19T09:49:18.289Z,9.90
2023-02-19T09:51:52.336Z,9.90
2023-02-19T09:54:27.923Z,9.90
2023-02-19T09:56:56.102Z,10.00
2023-02-19T09:59:41.026Z,10.00
2023-02-19T10:02:23.122Z,10.00
2023-02-19T10:04:51.264Z,10.00
2023-02-19T10:07:28.172Z,10.10
2023-02-19T10:10:01.047Z,10.20
2023-02-19T10:12:31.756Z,10.20
2023-02-19T10:15:09.196Z,10.20
2023-02-19T10:17:38.199Z,10.20
2023-02-19T10:20:05.520Z,10.30
2023-02-19T10:22:35.632Z,10.30
2023-02-19T10:25:02.808Z,10.30
2023-02-19T10:27:31.174Z,10.20
2023-02-19T10:30:01.272Z,10.20
2023-02-19T10:32:29.450Z,10.20
2023-02-19T10:35:16.309Z,10.20
2023-02-19T10:37:51.137Z,10.20
2023-02-19T10:40:23.282Z,10.20
2023-02-19T10:42:55.857Z,10.30
2023-02-19T10:45:35.134Z,10.30
2023-02-19T10:48:02.832Z,10.30
2023-02-19T10:50:39.252Z,10.30
2023-02-19T10:53:05.942Z,10.30
2023-02-19T10:55:38.104Z,10.30
2023-02-19T10:58:40.023Z,10.40
2023-02-19T11:01:28.101Z,10.40
2023-02-19T11:04:17.962Z,10.40
2023-02-19T11:06:46.548Z,10.40
2023-02-19T11:09:31.637Z,10.40
2023-02-19T11:11:59.408Z,10.40
2023-02-19T11:14:27.286Z,10.40
2023-02-19T11:16:56.720Z,10.40
2023-02-19T11:19:44.154Z,10.50
2023-02-19T11:22:34.408Z,10.50
2023-02-19T11:25:17.952Z,10.50
2023-02-19T11:28:02.641Z,10.60
2023-02-19T11:30:36.996Z,10.60
2023-02-19T11:33:27.437Z,10.60
2023-02-19T11:36:17.965Z,10.60
2023-02-19T11:38:44.934Z,10.60
2023-02-19T11:41:28.263Z,10.70
2023-02-19T11:44:13.604Z,10.70
2023-02-19T11:47:18.079Z,10.70
2023-02-19T11:49:58.707Z,10.70
2023-02-19T11:52:49.581Z,10.80
2023-02-19T11:56:04.854Z,10.70
2023-02-19T11:58:37.657Z,10.50
2023-02-19T12:01:31.522Z,10.30
2023-02-19T12:04:07.120Z,10.20
2023-02-19T12:06:50.732Z,10.10
2023-02-19T12:09:29.222Z,10.20
2023-02-19T12:12:33.331Z,10.40
2023-02-19T12:15:22.569Z,10.60
2023-02-19T12:17:49.159Z,10.70
2023-02-19T12:20:57.703Z,11.00
2023-02-19T12:23:38.417Z,11.50
2023-02-19T12:26:12.760Z,12.20
2023-02-19T12:29:01.572Z,13.20
2023-02-19T12:31:36.483Z,13.70
2023-02-19T12:34:29.263Z,14.20
2023-02-19T12:37:26.229Z,14.10
2023-02-19T12:40:14.347Z,13.40
2023-02-19T12:43:01.693Z,12.90
2023-02-19T12:45:40.323Z,12.50
2023-02-19T12:48:28.409Z,12.30
2023-02-19T12:51:06.952Z,12.40
2023-02-19T12:53:54.127Z,12.50
2023-02-19T12:56:34.612Z,12.40
2023-02-19T12:59:07.382Z,12.30
2023-02-19T13:01:45.480Z,12.50
2023-02-19T13:04:27.975Z,12.50
2023-02-19T13:07:33.448Z,12.40
2023-02-19T13:10:10.734Z,12.50
2023-02-19T13:12:40.518Z,12.50
2023-02-19T13:15:16.552Z,12.40
2023-02-19T13:17:52.993Z,12.30
2023-02-19T13:20:32.634Z,12.10
2023-02-19T13:23:42.506Z,11.90
2023-02-19T13:26:20.770Z,11.80
2023-02-19T13:29:09.332Z,11.60
2023-02-19T13:32:15.149Z,11.50
2023-02-19T13:35:10.586Z,11.40
2023-02-19T13:37:38.324Z,11.30
2023-02-19T13:40:19.267Z,11.20
2023-02-19T13:42:55.037Z,11.10
2023-02-19T13:45:42.115Z,11.10
2023-02-19T13:48:30.048Z,11.10
2023-02-19T13:51:18.771Z,11.10
2023-02-19T13:53:49.367Z,11.20
2023-02-19T13:56:31.513Z,11.30
2023-02-19T13:59:01.339Z,11.40
2023-02-19T14:01:53.001Z,11.40
2023-02-19T14:04:40.944Z,11.30
2023-02-19T14:07:12.735Z,11.30
2023-02-19T14:09:45.207Z,11.20
2023-02-19T14:12:19.106Z,11.20
2023-02-19T14:14:52.568Z,11.20
2023-02-19T14:17:37.450Z,11.20
2023-02-19T14:20:12.978Z,11.30
2023-02-19T14:23:01.534Z,11.30
2023-02-19T14:25:31.075Z,11.40
2023-02-19T14:28:06.537Z,11.30
2023-02-19T14:30:35.141Z,11.40
2023-02-19T14:33:10.926Z,11.40
2023-02-19T14:35:45.060Z,11.40
2023-02-19T14:38:18.143Z,11.40
2023-02-19T14:40:49.294Z,11.40
2023-02-19T14:43:21.735Z,11.40
2023-02-19T14:46:13.972Z,11.40
2023-02-19T14:48:48.737Z,11.40
2023-02-19T14:51:25.170Z,11.40
2023-02-19T14:53:54.054Z,11.40
2023-02-19T14:56:27.679Z,11.50
2023-02-19T14:59:22.158Z,11.50
2023-02-19T15:01:59.397Z,11.50
2023-02-19T15:04:29.852Z,11.60
2023-02-19T15:07:03.416Z,11.60
2023-02-19T15:09:36.541Z,11.60
2023-02-19T15:12:03.965Z,11.60
2023-02-19T15:14:32.981Z,11.50
2023-02-19T15:17:15.541Z,11.50
2023-02-19T15:19:43.921Z,11.50
2023-02-19T15:22:20.387Z,11.50
2023-02-19T15:24:48.698Z,11.50
2023-02-19T15:27:24.720Z,11.40
2023-02-19T15:29:53.807Z,11.40
2023-02-19T15:32:26.662Z,11.40
2023-02-19T15:34:55.445Z,11.40
2023-02-19T15:37:23.819Z,11.30
2023-02-19T15:39:52.394Z,11.30
2023-02-19T15:42:24.235Z,11.30
2023-02-19T15:45:21.303Z,11.30
2023-02-19T15:47:59.834Z,11.20
2023-02-19T15:50:38.863Z,11.20
2023-02-19T15:53:18.366Z,11.20
2023-02-19T15:56:06.173Z,11.20
2023-02-19T15:58:52.511Z,11.20
2023-02-19T16:01:25.111Z,11.20
2023-02-19T16:03:58.476Z,11.20
2023-02-19T16:06:26.862Z,11.10
2023-02-19T16:09:04.550Z,11.10
2023-02-19T16:11:52.361Z,11.00
2023-02-19T16:14:39.329Z,11.00
2023-02-19T16:17:11.843Z,11.00
2023-02-19T16:20:01.336Z,10.90
2023-02-19T16:22:39.982Z,10.90
2023-02-19T16:25:21.894Z,10.90
2023-02-19T16:27:48.773Z,10.90
2023-02-19T16:30:27.112Z,10.90
2023-02-19T16:33:39.089Z,10.90
2023-02-19T16:36:45.966Z,10.80
2023-02-19T16:39:18.038Z,10.80
2023-02-19T16:41:47.844Z,10.70
2023-02-19T16:44:35.600Z,10.70
2023-02-19T16:47:22.605Z,10.70
2023-02-19T16:49:49.377Z,10.70
2023-02-19T16:52:18.516Z,10.60
2023-02-19T16:54:45.336Z,10.60
2023-02-19T16:57:11.986Z,10.60
2023-02-19T16:59:38.716Z,10.50
2023-02-19T17:02:09.089Z,10.60
2023-02-19T17:04:38.330Z,10.60
2023-02-19T17:07:07.559Z,10.60
2023-02-19T17:09:34.297Z,10.50
2023-02-19T17:12:03.112Z,10.50
2023-02-19T17:14:29.846Z,10.50
2023-02-19T17:16:56.686Z,10.50
2023-02-19T17:19:23.511Z,10.50
2023-02-19T17:21:50.234Z,10.50
2023-02-19T17:24:19.571Z,10.50
2023-02-19T17:26:46.253Z,10.50
2023-02-19T17:29:18.373Z,10.50
2023-02-19T17:31:47.832Z,10.50
2023-02-19T17:34:14.613Z,10.50
2023-02-19T17:36:43.164Z,10.40
2023-02-19T17:39:16.268Z,10.30
2023-02-19T17:41:45.303Z,10.20
2023-02-19T17:44:12.007Z,10.20
2023-02-19T17:46:39.329Z,10.10
2023-02-19T17:49:07.406Z,10.10
2023-02-19T17:51:37.337Z,10.10
2023-02-19T17:54:04.724Z,10.10
2023-02-19T17:56:31.860Z,10.10
2023-02-19T17:58:59.527Z,10.00
2023-02-19T18:01:28.527Z,10.10
2023-02-19T18:03:57.471Z,10.00
2023-02-19T18:06:24.151Z,10.00
2023-02-19T18:08:52.885Z,10.00
2023-02-19T18:11:21.966Z,10.00
2023-02-19T18:13:52.438Z,10.00
2023-02-19T18:16:19.882Z,10.00
2023-02-19T18:18:46.823Z,10.00
2023-02-19T18:21:14.702Z,10.00
2023-02-19T18:23:45.992Z,10.00
2023-02-19T18:26:13.819Z,10.00
2023-02-19T18:28:41.667Z,10.00
2023-02-19T18:31:13.847Z,10.00
2023-02-19T18:33:40.640Z,10.00
2023-02-19T18:36:11.658Z,10.00
2023-02-19T18:38:38.769Z,9.90
2023-02-19T18:41:05.739Z,9.90
2023-02-19T18:43:34.900Z,9.90
2023-02-19T18:46:07.947Z,9.90
2023-02-19T18:48:34.737Z,10.00
2023-02-19T18:51:03.914Z,10.00
2023-02-19T18:53:31.483Z,10.00
2023-02-19T18:56:00.439Z,10.00
2023-02-19T18:58:28.425Z,10.00
2023-02-19T19:00:55.429Z,9.90
2023-02-19T19:03:22.394Z,10.00
2023-02-19T19:05:49.039Z,10.00
2023-02-19T19:08:15.895Z,10.00
2023-02-19T19:10:42.641Z,10.00
2023-02-19T19:13:14.554Z,10.00
2023-02-19T19:15:41.465Z,10.00
2023-02-19T19:18:09.011Z,10.00
2023-02-19T19:20:36.028Z,10.00
2023-02-19T19:23:03.991Z,10.00
2023-02-19T19:25:33.170Z,10.00
2023-02-19T19:28:02.300Z,10.00
2023-02-19T19:30:29.209Z,10.00
2023-02-19T19:32:59.496Z,10.00
2023-02-19T19:35:28.527Z,10.00
2023-02-19T19:37:55.719Z,10.00
2023-02-19T19:40:22.458Z,10.00
2023-02-19T19:42:52.231Z,10.00
2023-02-19T19:45:19.396Z,10.10
2023-02-19T19:47:48.913Z,10.00
2023-02-19T19:50:19.892Z,10.00
2023-02-19T19:52:46.776Z,10.00
2023-02-19T19:55:17.176Z,10.00
2023-02-19T19:57:44.136Z,10.10
2023-02-19T20:00:18.557Z,10.10
2023-02-19T20:02:46.370Z,10.10
2023-02-19T20:05:15.453Z,10.10
2023-02-19T20:07:42.338Z,10.00
2023-02-19T20:10:11.647Z,10.10
2023-02-19T20:12:41.989Z,10.10
2023-02-19T20:15:10.422Z,10.00
2023-02-19T20:17:38.757Z,10.00
2023-02-19T20:20:06.639Z,10.10
2023-02-19T20:22:33.495Z,10.00
2023-02-19T20:25:00.234Z,10.00
2023-02-19T20:27:26.985Z,10.00
2023-02-19T20:29:53.653Z,10.00
2023-02-19T20:32:22.666Z,10.00
2023-02-19T20:34:49.472Z,10.00
2023-02-19T20:37:16.274Z,10.00
2023-02-19T20:39:45.276Z,10.00
2023-02-19T20:42:16.594Z,10.00
2023-02-19T20:44:46.340Z,10.00
2023-02-19T20:47:13.126Z,10.00
2023-02-19T20:49:47.826Z,10.00
2023-02-19T20:52:16.675Z,10.00
2023-02-19T20:54:45.666Z,10.00
2023-02-19T20:57:14.104Z,9.90
2023-02-19T20:59:44.147Z,9.90
2023-02-19T21:02:28.919Z,10.00
2023-02-19T21:04:59.131Z,10.00
2023-02-19T21:07:26.332Z,10.00
2023-02-19T21:09:55.645Z,9.90
2023-02-19T21:12:22.887Z,10.00
2023-02-19T21:14:49.688Z,9.90
2023-02-19T21:17:16.465Z,9.90
2023-02-19T21:19:45.303Z,9.90
2023-02-19T21:22:12.216Z,9.90
2023-02-19T21:24:38.934Z,9.90
2023-02-19T21:27:05.681Z,9.90
2023-02-19T21:29:32.339Z,9.90
2023-02-19T21:32:04.638Z,9.90
2023-02-19T21:34:31.325Z,9.90
2023-02-19T21:37:00.585Z,9.90
2023-02-19T21:39:31.299Z,9.90
2023-02-19T21:42:00.424Z,9.90
2023-02-19T21:44:29.211Z,9.90
2023-02-19T21:46:58.414Z,9.80
2023-02-19T21:49:25.211Z,9.80
2023-02-19T21:51:52.403Z,9.90
2023-02-19T21:54:24.453Z,9.80
2023-02-19T21:56:52.595Z,9.80
2023-02-19T21:59:21.252Z,9.80
2023-02-19T22:01:48.936Z,9.80
2023-02-19T22:04:20.348Z,9.80
2023-02-19T22:06:47.394Z,9.80
2023-02-19T22:09:14.770Z,9.80
2023-02-19T22:11:41.545Z,9.80
2023-02-19T22:14:08.494Z,9.80
2023-02-19T22:16:37.516Z,9.80
2023-02-19T22:19:04.730Z,9.80
2023-02-19T22:21:34.817Z,9.80
2023-02-19T22:24:02.825Z,9.80
2023-02-19T22:26:34.829Z,9.80
2023-02-19T22:29:07.353Z,9.70
2023-02-19T22:31:35.193Z,9.70
2023-02-19T22:34:05.282Z,9.70
2023-02-19T22:36:33.909Z,9.70
2023-02-19T22:39:01.285Z,9.70
2023-02-19T22:41:28.243Z,9.70
2023-02-19T22:43:56.313Z,9.60
2023-02-19T22:46:27.257Z,9.60
2023-02-19T22:48:54.294Z,9.60
2023-02-19T22:51:23.210Z,9.60
2023-02-19T22:53:52.396Z,9.60
2023-02-19T22:56:21.110Z,9.60
2023-02-19T22:58:47.804Z,9.50
2023-02-19T23:01:15.322Z,9.50
2023-02-19T23:03:53.289Z,9.50
2023-02-19T23:06:29.200Z,9.40
2023-02-19T23:08:58.297Z,9.40
2023-02-19T23:11:34.855Z,9.30
2023-02-19T23:14:04.669Z,9.40
2023-02-19T23:16:35.659Z,9.30
2023-02-19T23:19:06.944Z,9.30
2023-02-19T23:21:34.442Z,9.30
2023-02-19T23:24:04.706Z,9.20
2023-02-19T23:26:31.747Z,9.10
2023-02-19T23:29:00.815Z,9.10
2023-02-19T23:31:27.812Z,9.10
2023-02-19T23:33:57.358Z,9.00
2023-02-19T23:36:24.172Z,8.90
2023-02-19T23:38:50.883Z,8.90
2023-02-19T23:41:18.568Z,8.80
2023-02-19T23:43:45.413Z,8.80
2023-02-19T23:46:17.646Z,8.80
2023-02-19T23:48:45.100Z,8.70
2023-02-19T23:51:14.501Z,8.70
2023-02-19T23:53:41.268Z,8.60
2023-02-19T23:56:08.125Z,8.60
2023-02-19T23:58:34.833Z,8.50
